Time;durP1;ratioP1;P1;durP2;ratioP2;P2;SDS_P1;SDS_P2;PMS_P1;PMS_P2;Temp;Humidity;BMP_temperature;BMP_pressure;BME280_temperature;BME280_humidity;BME280_pressure;Samples;Min_cycle;Max_cycle;Signal;HPM_P1;HPM_P2
2023/10/28 00:01:32;;;;;;;2.88;0.98;;;;;;;21.09;56.27;99587.81;4886838;29;20043;-60
2023/10/28 00:04:02;;;;;;;2.33;0.88;;;;;;;21.09;56.21;99584.28;4898385;29;20056;-59
2023/10/28 00:06:29;;;;;;;2.58;1.02;;;;;;;21.09;56.43;99586.97;4898408;29;20089;-59
2023/10/28 00:08:57;;;;;;;3.63;0.80;;;;;;;21.08;56.26;99577.22;4897971;29;20060;-59
2023/10/28 00:11:24;;;;;;;2.67;0.88;;;;;;;21.08;56.12;99580.75;4897923;29;20072;-59
2023/10/28 00:13:52;;;;;;;2.80;1.00;;;;;;;21.08;56.17;99575.38;4898417;29;20056;-60
2023/10/28 00:16:19;;;;;;;3.35;1.15;;;;;;;21.08;56.14;99577.22;4896931;29;20051;-60
2023/10/28 00:18:48;;;;;;;2.67;0.88;;;;;;;21.09;56.22;99568.16;4897867;29;20396;-60
2023/10/28 00:21:17;;;;;;;3.42;1.20;;;;;;;21.08;56.25;99563.78;4897789;29;20067;-60
2023/10/28 00:23:46;;;;;;;2.35;0.98;;;;;;;21.07;56.33;99565.63;4898350;29;20097;-60
2023/10/28 00:26:13;;;;;;;2.80;0.90;;;;;;;21.07;56.26;99571.03;4897590;29;20049;-60
2023/10/28 00:28:42;;;;;;;3.15;1.02;;;;;;;21.08;56.13;99571.84;4897372;29;20076;-60
2023/10/28 00:31:19;;;;;;;2.38;0.90;;;;;;;21.07;56.09;99571.03;4896205;29;20517;-60
2023/10/28 00:33:46;;;;;;;2.97;1.10;;;;;;;21.08;56.04;99572.69;4881161;29;20056;-60
2023/10/28 00:36:14;;;;;;;2.53;0.80;;;;;;;21.08;56.20;99578.06;4897507;29;20037;-60
2023/10/28 00:38:41;;;;;;;2.28;1.13;;;;;;;21.07;56.22;99575.56;4896336;29;20557;-60
2023/10/28 00:41:09;;;;;;;2.60;1.00;;;;;;;21.07;56.27;99575.56;4897567;29;20049;-60
2023/10/28 00:43:36;;;;;;;2.63;1.05;;;;;;;21.07;56.26;99587.16;4897579;29;20049;-60
2023/10/28 00:46:07;;;;;;;3.72;1.23;;;;;;;21.07;56.41;99581.78;4897835;29;20071;-60
2023/10/28 00:48:34;;;;;;;2.75;0.95;;;;;;;21.06;56.25;99596.22;4897477;29;20056;-60
2023/10/28 00:51:02;;;;;;;4.53;1.35;;;;;;;21.07;56.26;99597.94;4897389;29;20059;-60
2023/10/28 00:53:31;;;;;;;2.63;0.88;;;;;;;21.07;56.30;99607.84;4898336;29;20041;-60
2023/10/28 00:56:01;;;;;;;4.55;1.45;;;;;;;21.07;56.26;99607.84;4897425;29;20045;-60
2023/10/28 00:58:30;;;;;;;1.83;0.70;;;;;;;21.07;56.18;99616.75;4880005;29;20079;-60
2023/10/28 01:00:58;;;;;;;3.72;1.10;;;;;;;21.06;56.33;99614.22;4862794;29;20075;-60
2023/10/28 01:03:28;;;;;;;4.35;1.35;;;;;;;21.06;56.39;99617.75;4891776;29;20056;-60
2023/10/28 01:05:57;;;;;;;2.20;0.88;;;;;;;21.06;56.46;99625.81;4897414;29;20048;-61
2023/10/28 01:08:24;;;;;;;3.33;1.02;;;;;;;21.06;56.42;99631.22;4897706;29;20045;-60
2023/10/28 01:10:52;;;;;;;3.28;1.08;;;;;;;21.06;56.51;99625.81;4871215;29;20435;-60
2023/10/28 01:13:20;;;;;;;3.97;1.00;;;;;;;21.05;56.50;99616.09;4897310;29;20053;-60
2023/10/28 01:15:47;;;;;;;1.85;0.60;;;;;;;21.07;56.59;99624.00;4880335;29;20056;-60
2023/10/28 01:18:14;;;;;;;2.58;0.95;;;;;;;21.06;56.59;99631.22;4897471;29;20363;-60
2023/10/28 01:20:42;;;;;;;2.25;1.08;;;;;;;21.06;56.56;99628.50;4887850;29;20418;-60
2023/10/28 01:23:09;;;;;;;2.58;0.98;;;;;;;21.05;56.49;99621.47;4897859;29;20061;-60
2023/10/28 01:25:37;;;;;;;2.28;0.90;;;;;;;21.06;56.57;99623.13;4880233;29;20064;-60
2023/10/28 01:28:05;;;;;;;2.58;0.75;;;;;;;21.05;56.56;99618.78;4897478;29;20049;-60
2023/10/28 01:30:32;;;;;;;4.63;0.90;;;;;;;21.05;56.50;99616.09;4888057;29;20048;-60
2023/10/28 01:32:59;;;;;;;3.78;1.13;;;;;;;21.05;56.59;99618.78;4880533;29;20060;-60
2023/10/28 01:35:27;;;;;;;3.60;1.30;;;;;;;21.05;56.44;99623.31;4898603;29;20069;-59
2023/10/28 01:37:54;;;;;;;2.75;0.82;;;;;;;21.04;56.59;99609.03;4883830;29;20528;-59
2023/10/28 01:40:22;;;;;;;2.92;0.90;;;;;;;21.05;56.57;99604.47;4891258;29;20060;-60
2023/10/28 01:42:50;;;;;;;3.58;0.80;;;;;;;21.05;56.54;99605.31;4900973;29;20052;-59
2023/10/28 01:45:18;;;;;;;4.38;1.23;;;;;;;21.04;56.63;99600.97;4900717;29;20055;-60
2023/10/28 01:47:45;;;;;;;3.13;1.02;;;;;;;21.03;56.55;99601.97;4900829;29;20048;-60
2023/10/28 01:50:13;;;;;;;2.55;0.70;;;;;;;21.05;56.49;99607.16;4891173;29;20396;-60
2023/10/28 01:52:42;;;;;;;3.45;0.80;;;;;;;21.05;56.55;99607.16;4900606;29;20048;-60
2023/10/28 01:55:11;;;;;;;2.15;0.82;;;;;;;21.03;56.66;99610.06;4900987;29;20048;-60
2023/10/28 01:57:40;;;;;;;2.50;0.80;;;;;;;21.04;56.55;99611.72;4882720;29;20068;-60
2023/10/28 02:00:12;;;;;;;2.30;0.88;;;;;;;21.04;56.59;99609.03;4878332;29;20500;-60
2023/10/28 02:02:45;;;;;;;1.73;0.80;;;;;;;21.02;56.44;99607.50;4884714;29;20044;-60
2023/10/28 02:05:15;;;;;;;3.10;0.88;;;;;;;21.04;56.54;99602.81;4896845;29;20416;-59
2023/10/28 02:07:43;;;;;;;3.40;1.02;;;;;;;21.04;56.69;99608.19;4898278;29;20484;-59
2023/10/28 02:10:10;;;;;;;1.52;0.63;;;;;;;21.05;56.52;99607.16;4900471;29;20040;-59
2023/10/28 02:12:38;;;;;;;2.05;0.85;;;;;;;21.04;56.60;99611.72;4898759;29;20418;-59
2023/10/28 02:15:08;;;;;;;2.63;0.90;;;;;;;21.04;56.54;99610.88;4882890;29;20415;-59
2023/10/28 02:17:36;;;;;;;3.03;0.80;;;;;;;21.03;56.62;99610.06;4882506;29;20526;-59
2023/10/28 02:20:06;;;;;;;2.08;0.73;;;;;;;21.02;56.56;99613.72;4898722;29;20049;-59
2023/10/28 02:22:34;;;;;;;1.77;0.90;;;;;;;21.03;56.81;99623.50;4882480;29;20120;-59
2023/10/28 02:25:01;;;;;;;2.72;1.05;;;;;;;21.03;56.63;99619.97;4897907;29;20065;-59
2023/10/28 02:27:29;;;;;;;2.10;0.73;;;;;;;21.03;56.65;99618.13;4900207;29;20101;-59
2023/10/28 02:29:56;;;;;;;2.65;0.90;;;;;;;21.03;56.61;99618.13;4898378;29;20060;-59
2023/10/28 02:32:24;;;;;;;2.97;1.00;;;;;;;21.03;56.70;99611.91;4899845;29;20044;-59
2023/10/28 02:34:51;;;;;;;2.85;0.80;;;;;;;21.03;56.64;99607.34;4900315;29;20049;-59
2023/10/28 02:37:19;;;;;;;3.58;1.13;;;;;;;21.03;56.62;99617.28;4898744;29;20148;-59
2023/10/28 02:39:47;;;;;;;1.92;0.70;;;;;;;21.03;56.65;99619.97;4899278;29;20052;-59
2023/10/28 02:42:14;;;;;;;2.08;0.70;;;;;;;21.03;56.64;99620.81;4900009;29;20100;-59
2023/10/28 02:44:42;;;;;;;3.25;0.90;;;;;;;21.04;56.68;99624.34;4899478;29;20057;-60
2023/10/28 02:47:09;;;;;;;2.35;0.82;;;;;;;21.03;56.65;99633.44;4898580;29;20097;-60
2023/10/28 02:49:37;;;;;;;3.53;1.10;;;;;;;21.03;56.54;99636.97;4900032;29;20048;-60
2023/10/28 02:52:05;;;;;;;2.00;0.90;;;;;;;21.03;56.63;99623.50;4882990;29;20059;-60
2023/10/28 02:54:34;;;;;;;2.10;0.55;;;;;;;21.03;56.65;99630.75;4899706;29;20053;-59
2023/10/28 02:57:03;;;;;;;2.58;1.00;;;;;;;21.02;56.73;99639.81;4898625;29;20056;-59
2023/10/28 02:59:30;;;;;;;2.70;0.88;;;;;;;21.03;56.64;99645.03;4899805;29;20432;-59
2023/10/28 03:01:58;;;;;;;2.40;0.73;;;;;;;21.03;56.69;99647.72;4888772;29;20372;-59
2023/10/28 03:04:25;;;;;;;3.05;1.08;;;;;;;21.03;56.68;99641.50;4885816;29;20041;-60
2023/10/28 03:06:52;;;;;;;2.67;0.60;;;;;;;21.02;56.68;99642.50;4899450;29;20044;-60
2023/10/28 03:09:20;;;;;;;3.17;0.80;;;;;;;21.03;56.73;99644.19;4881831;29;20053;-60
2023/10/28 03:11:47;;;;;;;1.98;0.70;;;;;;;21.03;56.78;99641.50;4882800;29;20514;-60
2023/10/28 03:14:18;;;;;;;2.25;0.73;;;;;;;21.01;56.67;99638.97;4882509;29;20586;-60
2023/10/28 03:16:46;;;;;;;2.30;0.85;;;;;;;21.02;56.70;99653.25;4882093;29;20081;-60
2023/10/28 03:19:13;;;;;;;1.83;0.82;;;;;;;21.01;56.86;99652.41;4897872;29;20052;-60
2023/10/28 03:21:41;;;;;;;1.83;0.60;;;;;;;21.02;56.70;99661.31;4881773;29;20067;-60
2023/10/28 03:24:08;;;;;;;1.67;0.82;;;;;;;21.03;56.79;99654.97;4899124;29;20048;-59
2023/10/28 03:26:35;;;;;;;1.95;0.73;;;;;;;21.01;56.84;99649.72;4898543;29;20060;-59
2023/10/28 03:29:03;;;;;;;2.63;0.60;;;;;;;21.01;56.76;99644.34;4898973;29;20055;-59
2023/10/28 03:31:30;;;;;;;1.73;0.60;;;;;;;21.03;56.73;99639.66;4881855;29;20422;-58
2023/10/28 03:33:58;;;;;;;3.33;1.10;;;;;;;21.01;56.71;99649.72;4898724;29;20052;-59
2023/10/28 03:36:25;;;;;;;3.40;0.70;;;;;;;21.02;56.54;99664.00;4881792;29;20049;-59
2023/10/28 03:38:53;;;;;;;3.38;1.30;;;;;;;21.01;56.66;99663.19;4898619;29;20055;-59
2023/10/28 03:41:20;;;;;;;1.92;0.60;;;;;;;21.00;56.64;99669.59;4898886;29;20059;-59
2023/10/28 03:43:47;;;;;;;2.08;0.70;;;;;;;21.02;56.72;99672.09;4898012;29;20056;-60
2023/10/28 03:46:20;;;;;;;2.10;0.70;;;;;;;21.01;56.63;99671.25;4898655;29;20484;-60
2023/10/28 03:48:48;;;;;;;3.17;0.75;;;;;;;21.02;56.67;99669.41;4899094;29;20059;-60
2023/10/28 03:51:16;;;;;;;1.80;0.80;;;;;;;21.02;56.74;99664.84;4898877;29;20063;-60
2023/10/28 03:53:44;;;;;;;3.65;1.10;;;;;;;21.01;56.71;99670.41;4898358;29;20509;-60
2023/10/28 03:56:12;;;;;;;2.13;0.70;;;;;;;21.01;56.65;99671.25;4898681;29;20053;-60
2023/10/28 03:58:40;;;;;;;2.00;0.73;;;;;;;21.02;56.72;99680.16;4881661;29;20052;-60
2023/10/28 04:01:07;;;;;;;3.50;1.00;;;;;;;21.01;56.66;99684.72;4898006;29;20064;-60
2023/10/28 04:03:35;;;;;;;1.60;0.50;;;;;;;21.01;56.80;99702.69;4883067;29;20072;-59
2023/10/28 04:06:02;;;;;;;2.00;0.80;;;;;;;21.00;56.79;99709.94;4889324;29;20052;-59
2023/10/28 04:08:33;;;;;;;2.22;0.93;;;;;;;21.00;56.84;99715.31;4898445;29;20052;-59
2023/10/28 04:11:03;;;;;;;4.43;1.13;;;;;;;21.01;56.82;99717.00;4898310;29;20056;-59
2023/10/28 04:13:31;;;;;;;3.72;0.60;;;;;;;21.01;56.96;99708.09;4895449;29;20048;-59
2023/10/28 04:15:59;;;;;;;2.17;0.68;;;;;;;21.01;56.95;99717.00;4897935;29;20045;-59
2023/10/28 04:18:26;;;;;;;1.52;0.65;;;;;;;20.99;56.86;99714.47;4898389;29;20063;-59
2023/10/28 04:20:54;;;;;;;2.95;0.80;;;;;;;21.00;56.88;99728.78;4894517;29;20448;-59
2023/10/28 04:23:22;;;;;;;2.90;0.80;;;;;;;20.99;56.90;99724.41;4897846;29;20049;-59
2023/10/28 04:25:49;;;;;;;2.95;0.50;;;;;;;20.98;56.94;99720.88;4897857;29;20056;-59
2023/10/28 04:28:16;;;;;;;3.38;0.75;;;;;;;20.99;56.89;99727.09;4898039;29;20045;-59
2023/10/28 04:30:54;;;;;;;1.88;0.77;;;;;;;20.99;56.97;99719.03;4897922;29;20522;-59
2023/10/28 04:33:21;;;;;;;2.05;0.70;;;;;;;20.98;57.00;99731.66;4897708;29;20056;-60
2023/10/28 04:35:49;;;;;;;1.50;0.50;;;;;;;20.99;56.95;99724.41;4898224;29;20423;-59
2023/10/28 04:38:16;;;;;;;1.40;0.70;;;;;;;20.99;56.92;99740.56;4897637;29;20403;-59
2023/10/28 04:40:43;;;;;;;1.85;0.65;;;;;;;20.99;56.96;99727.09;4897714;29;20063;-59
2023/10/28 04:43:11;;;;;;;2.75;0.65;;;;;;;20.98;56.92;99734.34;4897805;29;20067;-60
2023/10/28 04:45:42;;;;;;;2.47;0.70;;;;;;;20.98;56.98;99745.09;4897619;29;20052;-59
2023/10/28 04:48:11;;;;;;;2.00;0.63;;;;;;;20.98;56.88;99753.16;4897632;29;20044;-59
2023/10/28 04:50:38;;;;;;;2.83;0.90;;;;;;;20.98;56.98;99760.38;4898025;29;20079;-59
2023/10/28 04:53:06;;;;;;;1.90;0.75;;;;;;;20.98;57.02;99760.38;4897812;29;20052;-59
2023/10/28 04:55:33;;;;;;;2.05;0.80;;;;;;;20.98;57.05;99766.63;4897972;29;20052;-60
2023/10/28 04:58:02;;;;;;;2.50;0.70;;;;;;;20.98;56.93;99769.31;4897692;29;20059;-60
2023/10/28 05:00:29;;;;;;;1.27;0.43;;;;;;;20.98;56.89;99761.25;4897455;29;20049;-60
2023/10/28 05:02:57;;;;;;;2.13;0.90;;;;;;;20.97;56.96;99766.78;4894316;29;20105;-60
2023/10/28 05:05:26;;;;;;;2.63;1.00;;;;;;;20.98;57.00;99771.13;4880365;29;20504;-60
2023/10/28 05:07:55;;;;;;;2.25;0.73;;;;;;;20.98;56.93;99776.53;4896375;29;20049;-60
2023/10/28 05:10:22;;;;;;;1.90;0.60;;;;;;;20.96;57.01;99771.31;4884006;29;20063;-60
2023/10/28 05:12:50;;;;;;;2.47;0.73;;;;;;;20.97;56.92;99774.84;4901069;29;20040;-60
2023/10/28 05:15:17;;;;;;;2.47;0.80;;;;;;;20.97;57.03;99785.59;4901724;29;20479;-61
2023/10/28 05:17:45;;;;;;;2.75;0.75;;;;;;;20.97;57.00;99788.28;4901280;29;20430;-60
2023/10/28 05:20:12;;;;;;;2.28;0.63;;;;;;;20.97;56.96;99793.69;4900927;29;20053;-60
2023/10/28 05:22:41;;;;;;;2.65;0.73;;;;;;;20.97;57.02;99801.75;4901252;29;20048;-61
2023/10/28 05:25:09;;;;;;;2.72;0.70;;;;;;;20.96;56.99;99806.28;4901310;29;20526;-61
2023/10/28 05:27:37;;;;;;;2.63;0.65;;;;;;;20.96;56.84;99811.69;4901119;29;20045;-61
2023/10/28 05:30:05;;;;;;;1.63;0.68;;;;;;;20.97;56.82;99824.13;4900954;29;20518;-60
2023/10/28 05:32:32;;;;;;;2.08;0.60;;;;;;;20.96;56.99;99817.06;4901398;29;20052;-60
2023/10/28 05:35:00;;;;;;;2.63;0.82;;;;;;;20.96;56.94;99814.38;4901319;29;20049;-60
2023/10/28 05:37:28;;;;;;;2.67;0.90;;;;;;;20.97;56.99;99809.81;4900874;29;20049;-60
2023/10/28 05:39:56;;;;;;;2.65;0.65;;;;;;;20.96;57.01;99816.22;4882978;29;20112;-60
2023/10/28 05:42:23;;;;;;;1.65;0.60;;;;;;;20.97;57.03;99818.72;4900577;29;20048;-60
2023/10/28 05:44:51;;;;;;;1.65;0.80;;;;;;;20.96;57.00;99824.28;4901187;29;20065;-60
2023/10/28 05:47:18;;;;;;;1.48;0.70;;;;;;;20.97;56.95;99834.03;4900528;29;20139;-60
2023/10/28 05:49:46;;;;;;;2.80;0.90;;;;;;;20.96;56.91;99830.50;4900497;29;20044;-60
2023/10/28 05:52:18;;;;;;;1.75;0.70;;;;;;;20.96;56.97;99840.44;4900925;29;20383;-60
2023/10/28 05:54:45;;;;;;;1.50;0.70;;;;;;;20.96;57.00;99853.88;4900923;29;20411;-59
2023/10/28 05:57:13;;;;;;;2.30;0.55;;;;;;;20.96;56.92;99859.28;4900521;29;20040;-59
2023/10/28 05:59:41;;;;;;;1.90;0.80;;;;;;;20.95;56.96;99863.81;4900858;29;20060;-59
2023/10/28 06:02:08;;;;;;;1.10;0.50;;;;;;;20.95;57.01;99862.97;4900441;29;20059;-59
2023/10/28 06:04:37;;;;;;;1.67;0.57;;;;;;;20.95;56.91;99866.50;4891752;29;20427;-61
2023/10/28 06:07:04;;;;;;;1.92;0.60;;;;;;;20.95;56.98;99865.66;4887987;29;20049;-61
2023/10/28 06:09:33;;;;;;;1.80;0.55;;;;;;;20.95;57.07;99865.66;4900651;29;20057;-60
2023/10/28 06:12:01;;;;;;;2.42;0.90;;;;;;;20.95;56.90;99877.25;4900249;29;20040;-60
2023/10/28 06:14:28;;;;;;;3.10;0.70;;;;;;;20.95;56.94;99885.34;4900098;29;20407;-60
2023/10/28 06:16:55;;;;;;;2.08;0.60;;;;;;;20.95;56.95;99881.81;4900478;29;20044;-60
2023/10/28 06:19:23;;;;;;;2.47;0.98;;;;;;;20.95;56.94;99889.88;4899769;29;20499;-60
2023/10/28 06:21:51;;;;;;;1.23;0.57;;;;;;;20.94;56.89;99888.19;4900163;29;20060;-60
2023/10/28 06:24:18;;;;;;;2.15;0.60;;;;;;;20.95;57.04;99892.56;4900443;29;20059;-60
2023/10/28 06:26:46;;;;;;;1.88;0.70;;;;;;;20.95;56.91;99901.47;4896545;29;20060;-61
2023/10/28 06:29:14;;;;;;;1.92;0.73;;;;;;;20.96;56.90;99910.41;4899721;29;20048;-61
2023/10/28 06:31:43;;;;;;;2.00;0.82;;;;;;;20.95;56.76;99903.34;4900727;29;20454;-61
2023/10/28 06:34:11;;;;;;;2.85;0.80;;;;;;;20.96;56.46;99921.16;4900271;29;20140;-61
2023/10/28 06:36:40;;;;;;;2.72;0.65;;;;;;;20.97;56.33;99920.97;4899041;29;20452;-60
2023/10/28 06:39:10;;;;;;;2.47;0.82;;;;;;;20.97;56.14;99920.13;4900030;29;20045;-60
2023/10/28 06:41:37;;;;;;;1.65;0.63;;;;;;;20.97;56.09;99917.44;4899947;29;20060;-60
2023/10/28 06:44:08;;;;;;;2.83;1.15;;;;;;;20.97;56.36;99920.13;4899684;29;20096;-61
2023/10/28 06:46:39;;;;;;;1.90;0.85;;;;;;;20.96;55.99;99935.44;4900039;29;20491;-61
2023/10/28 06:49:08;;;;;;;4.47;1.00;;;;;;;20.97;55.89;99936.28;4898749;29;20061;-60
2023/10/28 06:51:36;;;;;;;1.67;0.50;;;;;;;20.96;55.93;99940.81;4899704;29;20048;-61
2023/10/28 06:54:04;;;;;;;3.42;1.25;;;;;;;20.98;55.94;99937.97;4899958;29;20048;-60
2023/10/28 06:56:31;;;;;;;1.58;0.60;;;;;;;20.97;56.06;99941.66;4899645;29;20053;-60
2023/10/28 06:58:58;;;;;;;2.45;0.73;;;;;;;20.97;56.07;99955.13;4882823;29;20530;-60
2023/10/28 07:01:26;;;;;;;2.63;0.80;;;;;;;20.96;55.94;99945.38;4899952;29;20055;-60
2023/10/28 07:03:53;;;;;;;2.72;0.93;;;;;;;20.96;55.94;99948.91;4882904;29;20060;-61
2023/10/28 07:06:21;;;;;;;1.92;0.90;;;;;;;20.96;55.87;99948.91;4888566;29;20048;-61
2023/10/28 07:08:49;;;;;;;1.95;0.80;;;;;;;20.96;55.75;99948.91;4889917;29;20055;-61
2023/10/28 07:11:16;;;;;;;2.13;0.80;;;;;;;20.97;55.67;99957.81;4898540;29;20087;-59
2023/10/28 07:13:44;;;;;;;3.67;1.58;;;;;;;20.92;54.66;99954.78;4899263;29;20063;-59
2023/10/28 07:16:12;;;;;;;2.85;1.33;;;;;;;20.86;54.29;99952.72;4899548;29;20080;-59
2023/10/28 07:18:39;;;;;;;5.00;1.83;;;;;;;20.80;53.77;99958.78;4898949;29;20049;-60
2023/10/28 07:21:07;;;;;;;3.50;1.65;;;;;;;20.75;53.91;99961.94;4898871;29;20407;-59
2023/10/28 07:23:34;;;;;;;4.18;2.00;;;;;;;20.70;53.77;99973.19;4899369;29;20412;-56
2023/10/28 07:26:02;;;;;;;4.38;1.88;;;;;;;20.67;53.88;99972.69;4897017;29;20057;-57
2023/10/28 07:28:37;;;;;;;4.72;1.48;;;;;;;20.65;53.93;99980.88;4898823;29;20049;-56
2023/10/28 07:31:06;;;;;;;5.65;1.83;;;;;;;20.64;54.15;99987.28;4899028;29;20487;-56
2023/10/28 07:33:34;;;;;;;5.28;1.83;;;;;;;20.65;54.37;99997.03;4898786;29;20059;-59
2023/10/28 07:36:04;;;;;;;3.17;1.58;;;;;;;20.65;54.48;100007.78;4898497;29;20048;-59
2023/10/28 07:38:31;;;;;;;3.33;1.08;;;;;;;20.66;54.75;99998.72;4890960;29;20411;-59
2023/10/28 07:41:00;;;;;;;4.93;1.70;;;;;;;20.66;54.60;100001.41;4899315;29;20384;-59
2023/10/28 07:43:27;;;;;;;3.35;1.33;;;;;;;20.66;54.55;100000.56;4895114;29;20392;-57
2023/10/28 07:45:56;;;;;;;4.68;1.48;;;;;;;20.64;54.47;100010.66;4898626;29;20107;-56
2023/10/28 07:48:26;;;;;;;5.50;3.17;;;;;;;20.62;54.53;100002.75;4891140;29;20040;-57
2023/10/28 07:50:54;;;;;;;6.25;3.33;;;;;;;20.61;54.78;100009.09;4898581;29;20051;-57
2023/10/28 07:53:21;;;;;;;6.30;3.28;;;;;;;20.61;54.95;100011.78;4898531;29;20048;-54
2023/10/28 07:55:49;;;;;;;6.93;2.20;;;;;;;20.63;55.23;100015.19;4898395;29;20052;-55
2023/10/28 07:58:16;;;;;;;4.03;2.15;;;;;;;20.65;55.48;100023.06;4898092;29;20100;-55
2023/10/28 08:00:44;;;;;;;6.40;1.80;;;;;;;20.68;55.48;100034.34;4898355;29;20057;-55
2023/10/28 08:03:12;;;;;;;3.70;1.58;;;;;;;20.70;55.48;100018.91;4898636;29;20052;-59
2023/10/28 08:05:39;;;;;;;5.07;1.63;;;;;;;20.73;55.44;100025.81;4897300;29;20053;-59
2023/10/28 08:08:09;;;;;;;3.33;1.67;;;;;;;20.77;55.28;100034.41;4879819;29;20040;-59
2023/10/28 08:10:40;;;;;;;3.20;1.55;;;;;;;20.78;54.75;100036.91;4895823;29;20048;-59
2023/10/28 08:13:07;;;;;;;6.40;2.38;;;;;;;20.81;54.98;100038.47;4898315;29;20049;-56
2023/10/28 08:15:35;;;;;;;5.78;2.22;;;;;;;20.84;55.40;100044.38;4897932;29;20044;-56
2023/10/28 08:18:02;;;;;;;4.82;1.63;;;;;;;20.88;55.35;100052.97;4898001;29;20053;-56
2023/10/28 08:20:30;;;;;;;4.18;1.70;;;;;;;20.90;55.25;100050.94;4898522;29;20052;-56
2023/10/28 08:22:58;;;;;;;3.58;1.75;;;;;;;20.93;55.10;100053.31;4898165;29;20056;-56
2023/10/28 08:25:25;;;;;;;4.20;2.10;;;;;;;20.96;54.74;100058.38;4897573;29;20064;-59
2023/10/28 08:27:52;;;;;;;4.60;2.33;;;;;;;20.98;54.89;100068.00;4898308;29;20056;-59
2023/10/28 08:30:20;;;;;;;6.40;2.13;;;;;;;21.00;55.01;100057.06;4897561;29;20048;-59
2023/10/28 08:32:47;;;;;;;5.60;1.67;;;;;;;21.00;55.01;100059.75;4897725;29;20071;-59
2023/10/28 08:35:15;;;;;;;7.93;2.35;;;;;;;21.03;55.15;100070.19;4897896;29;20053;-57
2023/10/28 08:37:43;;;;;;;5.50;1.90;;;;;;;21.04;55.27;100071.03;4897696;29;20049;-57
2023/10/28 08:40:11;;;;;;;6.57;2.10;;;;;;;21.06;55.30;100083.31;4897775;29;20048;-58
2023/10/28 08:42:38;;;;;;;5.72;2.05;;;;;;;21.07;55.10;100085.00;4897584;29;20492;-55
2023/10/28 08:45:08;;;;;;;5.75;2.10;;;;;;;21.10;54.95;100086.50;4897474;29;20041;-59
2023/10/28 08:47:38;;;;;;;4.15;1.77;;;;;;;21.12;55.14;100079.97;4897640;29;20059;-61
2023/10/28 08:50:09;;;;;;;6.60;2.53;;;;;;;21.16;55.11;100085.88;4897601;29;20044;-61
2023/10/28 08:52:38;;;;;;;6.30;1.90;;;;;;;21.16;55.20;100077.81;4897611;29;20052;-60
2023/10/28 08:55:10;;;;;;;5.65;2.08;;;;;;;21.18;55.02;100083.84;4897874;29;20056;-59
2023/10/28 08:57:44;;;;;;;4.88;2.00;;;;;;;21.18;55.30;100083.84;4897721;29;20056;-59
2023/10/28 09:00:14;;;;;;;3.47;1.90;;;;;;;21.18;55.09;100084.69;4898048;29;20044;-60
2023/10/28 09:02:44;;;;;;;8.40;2.20;;;;;;;21.18;55.25;100084.69;4897583;29;20498;-60
2023/10/28 09:05:15;;;;;;;4.10;2.17;;;;;;;21.18;55.17;100087.38;4897745;29;20158;-58
2023/10/28 09:07:43;;;;;;;6.05;2.00;;;;;;;21.19;55.02;100083.72;4888790;29;20072;-57
2023/10/28 09:10:11;;;;;;;5.55;1.77;;;;;;;21.19;54.61;100083.72;4885007;29;20041;-56
2023/10/28 09:12:39;;;;;;;5.30;2.03;;;;;;;21.19;54.45;100085.56;4897469;29;20396;-58
2023/10/28 09:15:08;;;;;;;6.82;1.90;;;;;;;21.18;54.39;100089.25;4897081;29;20055;-58
2023/10/28 09:17:36;;;;;;;4.53;1.70;;;;;;;21.18;54.32;100084.69;4895957;29;20060;-58
2023/10/28 09:20:09;;;;;;;6.82;2.15;;;;;;;21.19;54.35;100089.09;4897584;29;20399;-57
2023/10/28 09:22:38;;;;;;;;;;;;;;;21.18;54.26;100089.25;4897609;29;20055;-57
2023/10/28 09:25:14;;;;;;;3.70;1.80;;;;;;;21.19;54.08;100089.09;4897516;29;19923;-59
2023/10/28 09:27:42;;;;;;;4.47;1.83;;;;;;;21.20;54.01;100089.94;4897857;29;20063;-59
2023/10/28 09:30:13;;;;;;;3.63;1.50;;;;;;;21.20;53.99;100092.63;4897218;29;20048;-59
2023/10/28 09:32:40;;;;;;;4.35;1.60;;;;;;;21.18;53.80;100092.78;4890032;29;20411;-60
2023/10/28 09:35:09;;;;;;;4.82;1.95;;;;;;;21.20;53.63;100090.78;4897522;29;20060;-60
2023/10/28 09:37:38;;;;;;;5.10;2.00;;;;;;;21.20;53.46;100098.84;4897106;29;20064;-59
2023/10/28 09:40:08;;;;;;;5.60;1.63;;;;;;;21.19;53.19;100104.41;4897044;29;20392;-59
2023/10/28 09:42:37;;;;;;;3.55;1.67;;;;;;;21.20;52.99;100106.09;4897676;29;20514;-59
2023/10/28 09:45:08;;;;;;;5.35;2.00;;;;;;;21.20;53.01;100098.03;4897284;29;20057;-58
2023/10/28 09:47:40;;;;;;;4.45;1.70;;;;;;;21.21;52.85;100102.38;4894470;29;20076;-56
2023/10/28 09:50:12;;;;;;;3.35;1.35;;;;;;;21.22;52.92;100096.81;4897235;29;20048;-58
2023/10/28 09:52:45;;;;;;;4.32;1.58;;;;;;;21.21;52.61;100097.84;4896805;29;20057;-57
2023/10/28 09:55:15;;;;;;;5.50;1.60;;;;;;;21.23;52.52;100103.94;4898546;29;20045;-58
2023/10/28 09:57:45;;;;;;;3.47;1.48;;;;;;;21.26;52.22;100100.03;4896799;29;20053;-58
2023/10/28 10:00:19;;;;;;;4.40;2.35;;;;;;;21.26;52.19;100108.13;4892453;29;20060;-59
2023/10/28 10:02:56;;;;;;;4.30;1.58;;;;;;;21.28;52.00;100107.97;4900768;29;20053;-59
2023/10/28 10:05:34;;;;;;;3.80;1.60;;;;;;;21.27;51.90;100099.06;4900554;29;20053;-61
2023/10/28 10:08:02;;;;;;;4.10;1.55;;;;;;;21.27;51.78;100096.38;4897166;29;20056;-60
2023/10/28 10:10:42;;;;;;;5.60;2.15;;;;;;;21.28;51.71;100095.34;4890242;29;20048;-62
2023/10/28 10:13:10;;;;;;;4.53;1.65;;;;;;;21.29;51.48;100097.03;4900220;29;20052;-60
2023/10/28 10:15:43;;;;;;;3.88;1.00;;;;;;;21.29;51.48;100097.03;4900307;29;20056;-61
2023/10/28 10:18:18;;;;;;;4.35;1.35;;;;;;;21.29;51.40;100101.59;4900708;29;20052;-61
2023/10/28 10:20:45;;;;;;;5.72;1.33;;;;;;;21.28;51.20;100111.50;4900047;29;20384;-61
2023/10/28 10:23:14;;;;;;;4.05;1.30;;;;;;;21.29;50.92;100102.41;4900119;29;20052;-61
2023/10/28 10:25:45;;;;;;;3.80;1.30;;;;;;;21.29;50.90;100105.13;4899815;29;20052;-62
2023/10/28 10:28:23;;;;;;;3.05;0.95;;;;;;;21.29;50.81;100104.28;4900031;29;20407;-59
2023/10/28 10:30:51;;;;;;;4.05;1.50;;;;;;;21.29;50.23;100109.66;4899903;29;20480;-59
2023/10/28 10:33:26;;;;;;;2.50;0.90;;;;;;;21.31;49.62;100099.56;4900405;29;20045;-51
2023/10/28 10:35:54;;;;;;;3.80;1.13;;;;;;;21.30;49.36;100095.19;4899749;29;20053;-55
2023/10/28 10:38:29;;;;;;;3.33;1.33;;;;;;;21.29;48.33;100098.88;4899919;29;20553;-49
2023/10/28 10:40:58;;;;;;;3.63;1.05;;;;;;;21.29;47.83;100099.72;4895460;29;20049;-49
2023/10/28 10:43:32;;;;;;;2.30;1.13;;;;;;;21.26;47.10;100091.13;4899677;29;20049;-55
2023/10/28 10:45:59;;;;;;;3.53;1.00;;;;;;;21.28;46.96;100094.53;4899643;29;20075;-49
2023/10/28 10:48:27;;;;;;;2.33;1.02;;;;;;;21.26;46.41;100094.66;4899963;29;20048;-50
2023/10/28 10:50:56;;;;;;;2.95;0.93;;;;;;;21.23;45.86;100093.16;4899512;29;20152;-58
2023/10/28 10:53:24;;;;;;;2.85;0.98;;;;;;;21.22;45.24;100104.06;4899914;29;20059;-63
2023/10/28 10:55:51;;;;;;;2.22;0.77;;;;;;;21.21;44.36;100102.38;4899996;29;20439;-69
2023/10/28 10:58:19;;;;;;;2.22;0.70;;;;;;;21.20;43.29;100108.78;4899431;29;20048;-63
2023/10/28 11:00:51;;;;;;;2.67;0.85;;;;;;;21.20;43.15;100103.41;4899292;29;20045;-65
2023/10/28 11:03:18;;;;;;;3.63;0.85;;;;;;;21.20;43.55;100106.94;4898003;29;20487;-54
2023/10/28 11:05:46;;;;;;;2.80;0.73;;;;;;;21.21;43.95;100111.31;4898853;29;20049;-54
2023/10/28 11:08:14;;;;;;;3.15;0.80;;;;;;;21.22;44.45;100102.22;4898454;29;20056;-54
2023/10/28 11:10:45;;;;;;;5.30;1.20;;;;;;;21.25;44.62;100095.69;4884923;29;20037;-55
2023/10/28 11:13:12;;;;;;;5.18;1.20;;;;;;;21.26;44.88;100096.50;4894284;29;20048;-64
2023/10/28 11:15:40;;;;;;;3.13;1.02;;;;;;;21.27;44.57;100092.81;4898961;29;20045;-64
2023/10/28 11:18:08;;;;;;;3.20;1.10;;;;;;;21.27;44.54;100087.41;4899172;29;20419;-64
2023/10/28 11:20:35;;;;;;;6.93;1.60;;;;;;;21.28;44.71;100089.13;4898994;29;20391;-51
2023/10/28 11:23:03;;;;;;;5.00;1.80;;;;;;;21.30;45.24;100100.56;4898238;29;20061;-62
2023/10/28 11:25:35;;;;;;;6.72;2.03;;;;;;;21.30;45.58;100096.03;4898746;29;20044;-62
2023/10/28 11:28:09;;;;;;;5.68;1.88;;;;;;;21.31;45.99;100095.03;4899333;29;20166;-62
2023/10/28 11:30:37;;;;;;;6.18;1.85;;;;;;;21.32;46.30;100090.50;4899091;29;20507;-64
2023/10/28 11:33:07;;;;;;;5.70;1.90;;;;;;;21.34;46.56;100093.88;4898810;29;20056;-59
2023/10/28 11:35:35;;;;;;;9.48;2.45;;;;;;;21.35;46.89;100095.56;4896109;29;20496;-59
2023/10/28 11:38:03;;;;;;;5.13;2.17;;;;;;;21.36;47.11;100098.13;4898413;29;20075;-58